createdAt,value
2019-05-30T00:00:55.824Z,101933.39
2019-05-30T00:03:24.412Z,101936.11
2019-05-30T00:05:54.165Z,101934.06
2019-05-30T00:08:22.734Z,101935.08
2019-05-30T00:10:51.208Z,101929.14
2019-05-30T00:13:19.727Z,101930.30
2019-05-30T00:15:48.216Z,101928.95
2019-05-30T00:18:16.982Z,101929.64
2019-05-30T00:20:45.790Z,101927.78
2019-05-30T00:23:14.289Z,101929.61
2019-05-30T00:25:42.767Z,101892.88
2019-05-30T00:28:11.247Z,101923.86
2019-05-30T00:30:39.723Z,101922.02
2019-05-30T00:33:08.235Z,101923.38
2019-05-30T00:35:36.729Z,101917.46
2019-05-30T00:38:06.077Z,101920.86
2019-05-30T00:40:34.642Z,101910.69
2019-05-30T00:43:04.236Z,101909.35
2019-05-30T00:45:32.823Z,101910.05
2019-05-30T00:48:02.252Z,101904.95
2019-05-30T00:50:30.802Z,101907.33
2019-05-30T00:52:59.280Z,101912.07
2019-05-30T00:55:27.754Z,101901.05
2019-05-30T00:57:56.742Z,101900.72
2019-05-30T01:00:42.088Z,101902.77
2019-05-30T01:02:59.377Z,101898.19
2019-05-30T01:05:27.263Z,101895.26
2019-05-30T01:07:56.714Z,101890.02
2019-05-30T01:10:25.267Z,101885.97
2019-05-30T01:12:53.738Z,101885.48
2019-05-30T01:15:22.212Z,101885.31
2019-05-30T01:17:50.718Z,101880.90
2019-05-30T01:20:19.199Z,101884.13
2019-05-30T01:22:47.694Z,101842.25
2019-05-30T01:25:16.538Z,101883.45
2019-05-30T01:27:45.318Z,101880.41
2019-05-30T01:30:13.833Z,101876.84
2019-05-30T01:32:42.306Z,101877.87
2019-05-30T01:35:10.891Z,101879.41
2019-05-30T01:37:39.376Z,101876.03
2019-05-30T01:40:08.695Z,101868.41
2019-05-30T01:42:37.681Z,101871.81
2019-05-30T01:45:06.399Z,101874.53
2019-05-30T01:47:34.874Z,101869.10
2019-05-30T01:50:04.388Z,101865.34
2019-05-30T01:52:33.175Z,101863.98
2019-05-30T01:55:02.759Z,101860.95
2019-05-30T01:57:31.346Z,101861.11
2019-05-30T02:00:00.799Z,101864.01
2019-05-30T02:02:29.283Z,101864.01
2019-05-30T02:04:58.828Z,101856.02
2019-05-30T02:07:27.444Z,101850.08
2019-05-30T02:09:55.922Z,101850.59
2019-05-30T02:12:24.406Z,101845.86
2019-05-30T02:14:52.915Z,101850.59
2019-05-30T02:17:21.385Z,101843.97
2019-05-30T02:19:49.913Z,101846.02
2019-05-30T02:22:18.338Z,101842.31
2019-05-30T02:24:46.822Z,101840.44
2019-05-30T02:27:15.387Z,101834.01
2019-05-30T02:29:43.836Z,101831.95
2019-05-30T02:32:12.677Z,101825.52
2019-05-30T02:34:41.174Z,101828.23
2019-05-30T02:37:10.850Z,101824.32
2019-05-30T02:39:40.082Z,101826.02
2019-05-30T02:42:09.657Z,101825.38
2019-05-30T02:44:38.634Z,101823.31
2019-05-30T02:47:07.498Z,101816.53
2019-05-30T02:49:36.349Z,101820.44
2019-05-30T02:52:06.906Z,101812.81
2019-05-30T02:54:35.062Z,101816.87
2019-05-30T02:57:03.770Z,101815.00
2019-05-30T02:59:33.516Z,101812.11
2019-05-30T03:02:05.268Z,101806.53
2019-05-30T03:04:32.224Z,101809.41
2019-05-30T03:07:01.971Z,101801.44
2019-05-30T03:09:30.910Z,101807.84
2019-05-30T03:11:59.390Z,101802.95
2019-05-30T03:14:28.088Z,101807.03
2019-05-30T03:16:56.561Z,101799.59
2019-05-30T03:19:25.060Z,101800.23
2019-05-30T03:21:53.794Z,101790.05
2019-05-30T03:24:22.300Z,101785.45
2019-05-30T03:26:50.785Z,101787.13
2019-05-30T03:29:19.507Z,101784.56
2019-05-30T03:31:48.003Z,101793.70
2019-05-30T03:34:26.165Z,101787.73
2019-05-30T03:36:46.753Z,101785.69
2019-05-30T03:39:15.588Z,101782.44
2019-05-30T03:41:44.383Z,101781.23
2019-05-30T03:44:13.878Z,101778.14
2019-05-30T03:46:47.293Z,101778.80
2019-05-30T03:49:18.154Z,101768.28
2019-05-30T03:51:46.906Z,101765.53
2019-05-30T03:54:16.019Z,101765.34
2019-05-30T03:56:47.787Z,101771.12
2019-05-30T03:59:26.796Z,101761.92
2019-05-30T04:02:02.813Z,101760.56
2019-05-30T04:04:33.990Z,101733.52
2019-05-30T04:07:03.911Z,101765.34
2019-05-30T04:09:32.373Z,101753.62
2019-05-30T04:12:12.706Z,101765.30
2019-05-30T04:14:42.545Z,101763.59
2019-05-30T04:17:13.575Z,101767.70
2019-05-30T04:19:41.229Z,101758.05
2019-05-30T04:22:11.428Z,101765.66
2019-05-30T04:24:40.136Z,101756.49
2019-05-30T04:27:09.914Z,101759.88
2019-05-30T04:29:38.995Z,101761.38
2019-05-30T04:32:08.460Z,101756.64
2019-05-30T04:34:37.708Z,101761.89
2019-05-30T04:37:06.201Z,101762.05
2019-05-30T04:39:34.695Z,101756.95
2019-05-30T04:42:03.199Z,101761.50
2019-05-30T04:44:31.689Z,101755.87
2019-05-30T04:47:00.232Z,101752.30
2019-05-30T04:49:28.731Z,101747.88
2019-05-30T04:51:57.250Z,101741.89
2019-05-30T04:54:26.041Z,101747.83
2019-05-30T04:56:54.524Z,101739.67
2019-05-30T04:59:23.084Z,101734.89
2019-05-30T05:01:51.748Z,101744.05
2019-05-30T05:04:21.666Z,101738.27
2019-05-30T05:06:50.322Z,101744.20
2019-05-30T05:09:20.258Z,101738.92
2019-05-30T05:11:49.195Z,101740.44
2019-05-30T05:14:18.483Z,101739.42
2019-05-30T05:16:47.306Z,101731.77
2019-05-30T05:19:17.193Z,101728.70
2019-05-30T05:21:46.084Z,101731.88
2019-05-30T05:24:15.326Z,101733.23
2019-05-30T05:26:44.046Z,101734.69
2019-05-30T05:29:13.980Z,101731.27
2019-05-30T05:31:42.854Z,101728.05
2019-05-30T05:34:11.342Z,101724.06
2019-05-30T05:36:39.828Z,101727.08
2019-05-30T05:39:08.343Z,101717.15
2019-05-30T05:41:36.823Z,101720.91
2019-05-30T05:44:05.291Z,101712.33
2019-05-30T05:46:33.804Z,101715.34
2019-05-30T05:49:02.269Z,101711.91
2019-05-30T05:51:30.753Z,101721.09
2019-05-30T05:53:59.253Z,101721.89
2019-05-30T05:56:29.049Z,101717.89
2019-05-30T05:58:57.626Z,101728.41
2019-05-30T06:01:26.102Z,101717.33
2019-05-30T06:03:54.861Z,101716.66
2019-05-30T06:06:23.531Z,101709.94
2019-05-30T06:08:52.090Z,101710.36
2019-05-30T06:11:20.619Z,101709.38
2019-05-30T06:13:49.057Z,101712.94
2019-05-30T06:16:17.944Z,101716.61
2019-05-30T06:18:46.484Z,101713.32
2019-05-30T06:21:14.947Z,101725.91
2019-05-30T06:23:45.619Z,101726.19
2019-05-30T06:26:13.635Z,101723.11
2019-05-30T06:28:42.158Z,101721.92
2019-05-30T06:31:10.924Z,101719.19
2019-05-30T06:33:39.463Z,101716.50
2019-05-30T06:36:08.302Z,101726.38
2019-05-30T06:38:36.803Z,101724.17
2019-05-30T06:41:05.267Z,101722.09
2019-05-30T06:43:33.809Z,101717.83
2019-05-30T06:46:02.274Z,101715.11
2019-05-30T06:48:31.032Z,101709.97
2019-05-30T06:50:59.543Z,101729.82
2019-05-30T06:53:29.249Z,101725.22
2019-05-30T06:55:57.903Z,101722.63
2019-05-30T06:58:41.426Z,101728.02
2019-05-30T07:00:56.599Z,101733.42
2019-05-30T07:03:26.264Z,101729.44
2019-05-30T07:05:55.607Z,101728.22
2019-05-30T07:08:24.759Z,101728.05
2019-05-30T07:10:53.194Z,101727.36
2019-05-30T07:13:23.100Z,101723.91
2019-05-30T07:15:51.835Z,101718.98
2019-05-30T07:18:20.323Z,101727.29
2019-05-30T07:20:48.838Z,101727.76
2019-05-30T07:23:17.630Z,101731.91
2019-05-30T07:25:46.425Z,101735.75
2019-05-30T07:28:14.905Z,101731.59
2019-05-30T07:30:43.363Z,101732.70
2019-05-30T07:33:11.846Z,101732.80
2019-05-30T07:35:40.636Z,101719.97
2019-05-30T07:38:09.400Z,101736.52
2019-05-30T07:40:38.122Z,101732.27
2019-05-30T07:43:06.729Z,101719.98
2019-05-30T07:45:35.293Z,101713.67
2019-05-30T07:48:03.764Z,101716.87
2019-05-30T07:50:32.603Z,101715.03
2019-05-30T07:53:01.204Z,101721.16
2019-05-30T07:55:30.993Z,101710.55
2019-05-30T07:57:59.599Z,101719.97
2019-05-30T08:00:29.237Z,101716.39
2019-05-30T08:02:57.865Z,101717.37
2019-05-30T08:05:26.825Z,101723.08
2019-05-30T08:07:55.719Z,101720.98
2019-05-30T08:10:24.212Z,101717.52
2019-05-30T08:12:53.173Z,101720.20
2019-05-30T08:15:21.657Z,101716.19
2019-05-30T08:17:50.116Z,101720.05
2019-05-30T08:20:19.013Z,101716.11
2019-05-30T08:22:47.503Z,101713.09
2019-05-30T08:25:15.991Z,101728.87
2019-05-30T08:27:44.501Z,101728.55
2019-05-30T08:30:13.492Z,101710.77
2019-05-30T08:32:42.222Z,101722.63
2019-05-30T08:35:10.684Z,101724.91
2019-05-30T08:37:39.450Z,101722.51
2019-05-30T08:40:07.971Z,101715.16
2019-05-30T08:42:38.206Z,101729.64
2019-05-30T08:45:09.972Z,101761.05
2019-05-30T08:47:38.153Z,101725.42
2019-05-30T08:50:06.688Z,101734.47
2019-05-30T08:52:36.357Z,101735.41
2019-05-30T08:55:05.130Z,101730.30
2019-05-30T08:57:35.052Z,101730.27
2019-05-30T09:00:03.824Z,101736.97
2019-05-30T09:02:32.325Z,101736.33
2019-05-30T09:05:01.057Z,101734.38
2019-05-30T09:07:31.736Z,101745.78
2019-05-30T09:09:59.760Z,101745.01
2019-05-30T09:12:28.528Z,101748.25
2019-05-30T09:14:57.019Z,101756.00
2019-05-30T09:17:25.777Z,101751.17
2019-05-30T09:19:54.257Z,101744.17
2019-05-30T09:22:23.039Z,101744.77
2019-05-30T09:24:51.858Z,101739.10
2019-05-30T09:27:20.334Z,101741.78
2019-05-30T09:29:48.819Z,101736.43
2019-05-30T09:32:17.323Z,101738.92
2019-05-30T09:34:46.975Z,101732.70
2019-05-30T09:37:16.007Z,101730.79
2019-05-30T09:39:45.516Z,101740.88
2019-05-30T09:42:14.391Z,101730.92
2019-05-30T09:44:45.772Z,101734.55
2019-05-30T09:47:13.607Z,101742.14
2019-05-30T09:49:43.154Z,101739.03
2019-05-30T09:52:12.061Z,101739.30
2019-05-30T09:54:41.156Z,101737.12
2019-05-30T09:57:10.926Z,101732.86
2019-05-30T09:59:39.385Z,101728.73
2019-05-30T10:02:07.864Z,101722.67
2019-05-30T10:04:36.664Z,101724.11
2019-05-30T10:07:05.182Z,101731.75
2019-05-30T10:09:33.665Z,101720.32
2019-05-30T10:12:02.140Z,101719.00
2019-05-30T10:14:30.640Z,101725.43
2019-05-30T10:16:59.490Z,101728.63
2019-05-30T10:19:27.982Z,101728.92
2019-05-30T10:21:57.284Z,101735.11
2019-05-30T10:24:25.905Z,101734.22
2019-05-30T10:26:54.400Z,101731.16
2019-05-30T10:29:22.896Z,101750.98
2019-05-30T10:31:52.624Z,101745.22
2019-05-30T10:34:21.117Z,101748.47
2019-05-30T10:36:50.298Z,101747.61
2019-05-30T10:39:19.117Z,101736.05
2019-05-30T10:41:48.952Z,101738.06
2019-05-30T10:44:17.535Z,101746.89
2019-05-30T10:46:47.150Z,101745.86
2019-05-30T10:49:16.207Z,101737.16
2019-05-30T10:51:46.142Z,101734.86
2019-05-30T10:54:15.092Z,101729.86
2019-05-30T10:56:43.592Z,101725.89
2019-05-30T10:59:12.040Z,101727.81
2019-05-30T11:01:40.529Z,101722.38
2019-05-30T11:04:09.025Z,101722.27
2019-05-30T11:07:06.853Z,101724.72
2019-05-30T11:09:20.804Z,101734.49
2019-05-30T11:11:50.679Z,101721.81
2019-05-30T11:14:19.271Z,101728.55
2019-05-30T11:16:48.911Z,101719.66
2019-05-30T11:19:18.326Z,101728.05
2019-05-30T11:21:47.856Z,101717.36
2019-05-30T11:24:16.343Z,101720.97
2019-05-30T11:26:44.820Z,101719.95
2019-05-30T11:29:13.268Z,101724.30
2019-05-30T11:31:42.035Z,101727.60
2019-05-30T11:34:10.543Z,101726.03
2019-05-30T11:36:39.035Z,101727.44
2019-05-30T11:39:07.516Z,101722.61
2019-05-30T11:41:36.030Z,101716.52
2019-05-30T11:44:04.509Z,101710.12
2019-05-30T11:46:32.981Z,101722.47
2019-05-30T11:49:01.743Z,101708.28
2019-05-30T11:51:30.219Z,101719.44
2019-05-30T11:53:58.919Z,101715.01
2019-05-30T11:56:27.575Z,101724.91
2019-05-30T11:58:58.070Z,101725.21
2019-05-30T12:01:26.547Z,101723.44
2019-05-30T12:03:55.029Z,101729.53
2019-05-30T12:06:23.518Z,101728.72
2019-05-30T12:08:52.779Z,101724.39
2019-05-30T12:11:21.346Z,101722.06
2019-05-30T12:13:51.747Z,101723.12
2019-05-30T12:16:20.309Z,101724.28
2019-05-30T12:18:48.818Z,101723.12
2019-05-30T12:21:17.287Z,101730.19
2019-05-30T12:23:46.039Z,101731.04
2019-05-30T12:26:14.551Z,101732.92
2019-05-30T12:28:43.255Z,101745.23
2019-05-30T12:31:11.775Z,101737.33
2019-05-30T12:33:40.254Z,101741.77
2019-05-30T12:36:08.755Z,101743.98
2019-05-30T12:38:37.484Z,101746.72
2019-05-30T12:41:05.989Z,101750.09
2019-05-30T12:43:34.458Z,101748.58
2019-05-30T12:46:03.315Z,101758.73
2019-05-30T12:48:31.863Z,101759.35
2019-05-30T12:51:01.462Z,101758.80
2019-05-30T12:53:29.891Z,101755.76
2019-05-30T12:55:58.539Z,101749.33
2019-05-30T12:58:26.927Z,101763.19
2019-05-30T13:00:56.582Z,101763.69
2019-05-30T13:03:25.102Z,101759.69
2019-05-30T13:05:55.045Z,101760.53
2019-05-30T13:08:23.869Z,101760.84
2019-05-30T13:10:52.604Z,101761.17
2019-05-30T13:13:21.449Z,101762.88
2019-05-30T13:15:49.924Z,101771.83
2019-05-30T13:18:18.422Z,101763.62
2019-05-30T13:20:46.912Z,101769.83
2019-05-30T13:23:15.369Z,101768.47
2019-05-30T13:25:43.876Z,101771.94
2019-05-30T13:28:12.362Z,101773.53
2019-05-30T13:30:40.848Z,101778.05
2019-05-30T13:33:09.320Z,101774.69
2019-05-30T13:35:37.807Z,101781.42
2019-05-30T13:38:07.369Z,101770.41
2019-05-30T13:40:35.948Z,101773.08
2019-05-30T13:43:04.447Z,101766.57
2019-05-30T13:45:32.953Z,101759.30
2019-05-30T13:48:02.514Z,101755.19
2019-05-30T13:50:31.186Z,101764.20
2019-05-30T13:53:00.844Z,101764.61
2019-05-30T13:55:30.104Z,101761.25
2019-05-30T13:57:59.525Z,101758.73
2019-05-30T14:00:27.999Z,101761.58
2019-05-30T14:02:56.485Z,101757.04
2019-05-30T14:05:25.277Z,101753.71
2019-05-30T14:07:53.772Z,101762.88
2019-05-30T14:10:22.302Z,101761.95
2019-05-30T14:12:51.131Z,101762.25
2019-05-30T14:15:19.637Z,101757.11
2019-05-30T14:17:48.129Z,101757.74
2019-05-30T14:20:16.958Z,101764.25
2019-05-30T14:22:45.437Z,101766.17
2019-05-30T14:25:14.012Z,101769.72
2019-05-30T14:27:43.072Z,101770.58
2019-05-30T14:30:12.904Z,101768.69
2019-05-30T14:32:41.944Z,101769.64
2019-05-30T14:35:11.923Z,101772.27
2019-05-30T14:37:40.974Z,101770.39
2019-05-30T14:40:09.744Z,101768.80
2019-05-30T14:42:39.275Z,101765.66
2019-05-30T14:45:08.402Z,101766.50
2019-05-30T14:47:36.986Z,101765.95
2019-05-30T14:50:06.736Z,101768.17
2019-05-30T14:52:35.268Z,101770.05
2019-05-30T14:55:05.137Z,101776.71
2019-05-30T14:57:33.649Z,101771.34
2019-05-30T15:00:02.507Z,101772.50
2019-05-30T15:02:31.024Z,101775.56
2019-05-30T15:04:59.874Z,101769.53
2019-05-30T15:07:28.397Z,101764.72
2019-05-30T15:09:57.160Z,101769.13
2019-05-30T15:12:25.651Z,101763.13
2019-05-30T15:14:54.431Z,101766.17
2019-05-30T15:17:22.938Z,101768.72
2019-05-30T15:19:51.532Z,101766.17
2019-05-30T15:22:20.293Z,101772.20
2019-05-30T15:24:48.787Z,101770.61
2019-05-30T15:27:20.610Z,101778.08
2019-05-30T15:29:47.476Z,101770.20
2019-05-30T15:32:16.578Z,101771.05
2019-05-30T15:34:45.173Z,101766.20
2019-05-30T15:37:14.839Z,101763.78
2019-05-30T15:39:43.299Z,101757.66
2019-05-30T15:42:12.179Z,101751.84
2019-05-30T15:44:41.796Z,101749.32
2019-05-30T15:47:10.285Z,101752.27
2019-05-30T15:49:38.757Z,101750.25
2019-05-30T15:52:08.632Z,101746.88
2019-05-30T15:54:37.431Z,101742.13
2019-05-30T15:57:05.959Z,101747.30
2019-05-30T15:59:34.469Z,101755.14
2019-05-30T16:02:02.953Z,101752.41
2019-05-30T16:04:31.462Z,101745.72
2019-05-30T16:06:59.944Z,101742.16
2019-05-30T16:09:28.682Z,101744.04
2019-05-30T16:11:57.179Z,101743.84
2019-05-30T16:14:25.665Z,101741.86
2019-05-30T16:16:54.160Z,101742.61
2019-05-30T16:19:26.318Z,101742.70
2019-05-30T16:21:52.882Z,101735.48
2019-05-30T16:24:21.361Z,101732.80
2019-05-30T16:26:50.611Z,101734.77
2019-05-30T16:29:19.829Z,101741.31
2019-05-30T16:31:48.266Z,101742.81
2019-05-30T16:34:17.972Z,101736.52
2019-05-30T16:36:46.839Z,101733.50
2019-05-30T16:39:16.005Z,101733.53
2019-05-30T16:41:44.823Z,101735.23
2019-05-30T16:44:14.180Z,101737.36
2019-05-30T16:46:42.682Z,101742.97
2019-05-30T16:49:11.151Z,101738.34
2019-05-30T16:51:39.650Z,101738.15
2019-05-30T16:54:08.156Z,101740.46
2019-05-30T16:56:36.627Z,101732.70
2019-05-30T16:59:05.108Z,101734.88
2019-05-30T17:01:33.644Z,101730.38
2019-05-30T17:04:02.111Z,101738.70
2019-05-30T17:06:30.595Z,101729.11
2019-05-30T17:08:59.411Z,101736.70
2019-05-30T17:11:27.898Z,101730.50
2019-05-30T17:13:56.390Z,101739.47
2019-05-30T17:16:26.286Z,101736.83
2019-05-30T17:18:56.428Z,101739.05
2019-05-30T17:21:24.868Z,101737.45
2019-05-30T17:23:53.340Z,101729.98
2019-05-30T17:26:23.181Z,101735.89
2019-05-30T17:28:51.767Z,101733.05
2019-05-30T17:31:20.270Z,101731.91
2019-05-30T17:33:48.731Z,101732.00
2019-05-30T17:36:18.078Z,101737.26
2019-05-30T17:38:46.733Z,101738.33
2019-05-30T17:41:15.230Z,101731.78
2019-05-30T17:43:43.963Z,101732.11
2019-05-30T17:46:12.512Z,101736.51
2019-05-30T17:48:40.992Z,101743.59
2019-05-30T17:51:09.463Z,101743.81
2019-05-30T17:53:37.957Z,101748.12
2019-05-30T17:56:06.474Z,101746.84
2019-05-30T17:58:34.973Z,101748.77
2019-05-30T18:01:03.453Z,101749.30
2019-05-30T18:03:32.192Z,101751.41
2019-05-30T18:06:00.675Z,101751.93
2019-05-30T18:08:29.178Z,101749.39
2019-05-30T18:10:57.638Z,101748.24
2019-05-30T18:13:27.109Z,101759.10
2019-05-30T18:15:55.740Z,101757.44
2019-05-30T18:18:25.346Z,101752.48
2019-05-30T18:20:53.939Z,101748.89
2019-05-30T18:23:23.501Z,101749.11
2019-05-30T18:25:52.354Z,101746.38
2019-05-30T18:28:21.497Z,101750.67
2019-05-30T18:30:50.747Z,101755.28
2019-05-30T18:33:19.218Z,101744.88
2019-05-30T18:35:47.673Z,101749.80
2019-05-30T18:38:16.174Z,101753.09
2019-05-30T18:40:44.654Z,101753.23
2019-05-30T18:43:13.161Z,101754.79
2019-05-30T18:45:41.903Z,101749.80
2019-05-30T18:48:10.502Z,101751.09
2019-05-30T18:50:39.398Z,101756.25
2019-05-30T18:53:07.933Z,101752.89
2019-05-30T18:55:37.046Z,101757.00
2019-05-30T18:58:07.592Z,101760.78
2019-05-30T19:00:36.006Z,101770.17
2019-05-30T19:03:04.745Z,101770.69
2019-05-30T19:05:33.548Z,101770.17
2019-05-30T19:08:02.046Z,101771.11
2019-05-30T19:10:30.514Z,101779.12
2019-05-30T19:12:59.012Z,101780.94
2019-05-30T19:15:29.999Z,101777.54
2019-05-30T19:17:57.782Z,101778.28
2019-05-30T19:20:26.265Z,101783.13
2019-05-30T19:22:54.763Z,101787.24
2019-05-30T19:25:23.263Z,101782.51
2019-05-30T19:27:51.721Z,101784.50
2019-05-30T19:30:20.229Z,101792.94
2019-05-30T19:32:48.733Z,101791.02
2019-05-30T19:35:17.225Z,101792.72
2019-05-30T19:37:45.705Z,101795.89
2019-05-30T19:40:14.315Z,101796.41
2019-05-30T19:42:43.193Z,101800.19
2019-05-30T19:45:11.752Z,101798.53
2019-05-30T19:47:40.236Z,101804.30
2019-05-30T19:50:10.870Z,101794.42
2019-05-30T19:52:39.623Z,101799.23
2019-05-30T19:55:08.091Z,101817.04
2019-05-30T19:57:37.782Z,101821.70
2019-05-30T20:00:06.722Z,101839.91
2019-05-30T20:02:36.114Z,101830.52
2019-05-30T20:05:05.128Z,101832.41
2019-05-30T20:07:34.624Z,101837.25
2019-05-30T20:10:03.173Z,101824.42
2019-05-30T20:12:32.639Z,101829.56
2019-05-30T20:15:01.217Z,101823.05
2019-05-30T20:17:30.162Z,101825.45
2019-05-30T20:19:59.810Z,101825.45
2019-05-30T20:22:28.319Z,101833.45
2019-05-30T20:24:57.055Z,101827.45
2019-05-30T20:27:25.534Z,101826.72
2019-05-30T20:29:54.004Z,101822.42
2019-05-30T20:32:22.556Z,101826.72
2019-05-30T20:34:51.336Z,101829.16
2019-05-30T20:37:19.910Z,101828.09
2019-05-30T20:39:48.954Z,101829.45
2019-05-30T20:42:19.468Z,101822.09
2019-05-30T20:44:48.093Z,101828.72
2019-05-30T20:47:16.569Z,101825.78
2019-05-30T20:49:45.349Z,101827.89
2019-05-30T20:52:13.839Z,101826.94
2019-05-30T20:54:43.623Z,101826.30
2019-05-30T20:57:12.146Z,101838.62
2019-05-30T20:59:40.732Z,101833.27
2019-05-30T21:02:09.314Z,101837.88
2019-05-30T21:04:38.812Z,101831.89
2019-05-30T21:07:07.372Z,101838.73
2019-05-30T21:09:36.021Z,101830.19
2019-05-30T21:12:04.517Z,101834.41
2019-05-30T21:14:33.454Z,101844.32
2019-05-30T21:17:02.019Z,101838.41
2019-05-30T21:19:30.518Z,101849.05
2019-05-30T21:21:59.013Z,101847.36
2019-05-30T21:24:27.473Z,101848.28
2019-05-30T21:26:55.990Z,101844.61
2019-05-30T21:29:24.547Z,101845.35
2019-05-30T21:31:53.035Z,101846.61
2019-05-30T21:34:21.534Z,101846.79
2019-05-30T21:36:50.006Z,101836.80
2019-05-30T21:39:18.448Z,101840.69
2019-05-30T21:41:46.946Z,101837.44
2019-05-30T21:44:15.447Z,101842.58
2019-05-30T21:46:44.733Z,101843.64
2019-05-30T21:49:13.324Z,101849.97
2019-05-30T21:51:41.811Z,101848.78
2019-05-30T21:54:10.403Z,101850.55
2019-05-30T21:56:39.935Z,101841.83
2019-05-30T21:59:08.480Z,101846.15
2019-05-30T22:01:37.654Z,101847.19
2019-05-30T22:04:06.209Z,101847.92
2019-05-30T22:06:34.749Z,101841.48
2019-05-30T22:09:03.989Z,101846.66
2019-05-30T22:11:32.464Z,101843.48
2019-05-30T22:14:00.978Z,101841.91
2019-05-30T22:16:29.485Z,101842.95
2019-05-30T22:18:57.965Z,101837.47
2019-05-30T22:21:26.465Z,101836.63
2019-05-30T22:23:54.939Z,101836.51
2019-05-30T22:26:23.438Z,101837.73
2019-05-30T22:28:52.714Z,101839.31
2019-05-30T22:31:21.292Z,101835.33
2019-05-30T22:33:51.508Z,101839.06
2019-05-30T22:36:20.574Z,101840.73
2019-05-30T22:38:49.383Z,101834.41
2019-05-30T22:41:17.902Z,101833.70
2019-05-30T22:43:46.384Z,101830.41
2019-05-30T22:46:14.852Z,101830.53
2019-05-30T22:48:44.405Z,101836.34
2019-05-30T22:51:13.199Z,101832.87
2019-05-30T22:53:41.704Z,101823.92
2019-05-30T22:56:10.475Z,101824.66
2019-05-30T22:58:38.968Z,101820.77
2019-05-30T23:01:07.475Z,101821.81
2019-05-30T23:03:35.944Z,101812.23
2019-05-30T23:06:04.434Z,101810.13
2019-05-30T23:08:32.894Z,101805.10
2019-05-30T23:11:01.380Z,101805.22
2019-05-30T23:13:40.184Z,101812.98
2019-05-30T23:16:00.113Z,101802.67
2019-05-30T23:18:28.587Z,101801.30
2019-05-30T23:20:57.100Z,101799.23
2019-05-30T23:23:25.584Z,101797.02
2019-05-30T23:25:55.339Z,101799.12
2019-05-30T23:28:23.922Z,101781.73
2019-05-30T23:30:52.414Z,101780.59
2019-05-30T23:33:20.898Z,101779.22
2019-05-30T23:35:50.269Z,101774.56
2019-05-30T23:38:18.760Z,101769.31
2019-05-30T23:40:47.245Z,101764.36
2019-05-30T23:43:15.717Z,101762.58
2019-05-30T23:45:44.226Z,101759.73
2019-05-30T23:48:12.760Z,101757.52
2019-05-30T23:50:41.261Z,101764.03
2019-05-30T23:53:09.724Z,101765.83
2019-05-30T23:55:38.202Z,101759.73
2019-05-30T23:58:06.711Z,101754.97
